sensor_id;sensor_type;location;lat;lon;timestamp;temperature;humidity
23748;DHT22;12054;53.662;10.126;2022-12-13T00:02:04;-3.70;99.90
23748;DHT22;12054;53.662;10.126;2022-12-13T00:04:30;-3.80;99.90
23748;DHT22;12054;53.662;10.126;2022-12-13T00:06:55;-3.70;99.90
23748;DHT22;12054;53.662;10.126;2022-12-13T00:09:21;-3.70;99.90
23748;DHT22;12054;53.662;10.126;2022-12-13T00:11:47;-3.70;99.90
23748;DHT22;12054;53.662;10.126;2022-12-13T00:14:14;-3.70;99.90
23748;DHT22;12054;53.662;10.126;2022-12-13T00:16:44;-3.70;99.90
23748;DHT22;12054;53.662;10.126;2022-12-13T00:19:10;-3.70;99.90
23748;DHT22;12054;53.662;10.126;2022-12-13T00:21:35;-3.70;99.90
23748;DHT22;12054;53.662;10.126;2022-12-13T00:24:01;-3.70;99.90
23748;DHT22;12054;53.662;10.126;2022-12-13T00:26:30;-3.70;99.90
23748;DHT22;12054;53.662;10.126;2022-12-13T00:29:04;-3.70;99.90
23748;DHT22;12054;53.662;10.126;2022-12-13T00:31:30;-3.70;99.90
23748;DHT22;12054;53.662;10.126;2022-12-13T00:33:59;-3.70;99.90
23748;DHT22;12054;53.662;10.126;2022-12-13T00:36:25;-3.70;99.90
23748;DHT22;12054;53.662;10.126;2022-12-13T00:38:50;-3.70;99.90
23748;DHT22;12054;53.662;10.126;2022-12-13T00:41:26;-3.70;99.90
23748;DHT22;12054;53.662;10.126;2022-12-13T00:43:53;-3.70;99.90
23748;DHT22;12054;53.662;10.126;2022-12-13T00:46:19;-3.60;99.90
23748;DHT22;12054;53.662;10.126;2022-12-13T00:48:51;-3.60;99.90
23748;DHT22;12054;53.662;10.126;2022-12-13T00:51:18;-3.60;99.90
23748;DHT22;12054;53.662;10.126;2022-12-13T00:53:43;-3.70;99.90
23748;DHT22;12054;53.662;10.126;2022-12-13T00:56:11;-3.60;99.90
23748;DHT22;12054;53.662;10.126;2022-12-13T00:58:37;-3.60;99.90
23748;DHT22;12054;53.662;10.126;2022-12-13T01:01:04;-3.60;99.90
23748;DHT22;12054;53.662;10.126;2022-12-13T01:03:30;-3.60;99.90
23748;DHT22;12054;53.662;10.126;2022-12-13T01:05:56;-3.60;99.90
23748;DHT22;12054;53.662;10.126;2022-12-13T01:08:22;-3.60;99.90
23748;DHT22;12054;53.662;10.126;2022-12-13T01:10:47;-3.60;99.90
23748;DHT22;12054;53.662;10.126;2022-12-13T01:13:13;-3.60;99.90
23748;DHT22;12054;53.662;10.126;2022-12-13T01:15:42;-3.50;99.90
23748;DHT22;12054;53.662;10.126;2022-12-13T01:18:09;-3.50;99.90
23748;DHT22;12054;53.662;10.126;2022-12-13T01:20:35;-3.50;99.90
23748;DHT22;12054;53.662;10.126;2022-12-13T01:23:00;-3.50;99.90
23748;DHT22;12054;53.662;10.126;2022-12-13T01:25:26;-3.50;99.90
23748;DHT22;12054;53.662;10.126;2022-12-13T01:27:51;-3.50;99.90
23748;DHT22;12054;53.662;10.126;2022-12-13T01:30:17;-3.50;99.90
23748;DHT22;12054;53.662;10.126;2022-12-13T01:32:43;-3.50;99.90
23748;DHT22;12054;53.662;10.126;2022-12-13T01:35:09;-3.50;99.90
23748;DHT22;12054;53.662;10.126;2022-12-13T01:37:34;-3.50;99.90
23748;DHT22;12054;53.662;10.126;2022-12-13T01:40:02;-3.50;99.90
23748;DHT22;12054;53.662;10.126;2022-12-13T01:42:28;-3.50;99.90
23748;DHT22;12054;53.662;10.126;2022-12-13T01:45:01;-3.40;99.90
23748;DHT22;12054;53.662;10.126;2022-12-13T01:47:35;-3.50;99.90
23748;DHT22;12054;53.662;10.126;2022-12-13T01:50:07;-3.40;99.90
23748;DHT22;12054;53.662;10.126;2022-12-13T01:52:34;-3.40;99.90
23748;DHT22;12054;53.662;10.126;2022-12-13T01:55:02;-3.40;99.90
23748;DHT22;12054;53.662;10.126;2022-12-13T01:57:29;-3.40;99.90
23748;DHT22;12054;53.662;10.126;2022-12-13T01:59:55;-3.40;99.90
23748;DHT22;12054;53.662;10.126;2022-12-13T02:02:21;-3.40;99.90
23748;DHT22;12054;53.662;10.126;2022-12-13T02:05:04;-3.40;99.90
23748;DHT22;12054;53.662;10.126;2022-12-13T02:07:33;-3.40;99.90
23748;DHT22;12054;53.662;10.126;2022-12-13T02:10:02;-3.40;99.90
23748;DHT22;12054;53.662;10.126;2022-12-13T02:12:31;-3.40;99.90
23748;DHT22;12054;53.662;10.126;2022-12-13T02:15:04;-3.40;99.90
23748;DHT22;12054;53.662;10.126;2022-12-13T02:26:02;-3.40;99.90
23748;DHT22;12054;53.662;10.126;2022-12-13T02:29:00;-3.30;99.90
23748;DHT22;12054;53.662;10.126;2022-12-13T02:31:42;-3.40;99.90
23748;DHT22;12054;53.662;10.126;2022-12-13T02:34:17;-3.30;99.90
23748;DHT22;12054;53.662;10.126;2022-12-13T02:37:03;-3.40;99.90
23748;DHT22;12054;53.662;10.126;2022-12-13T02:39:33;-3.40;99.90
23748;DHT22;12054;53.662;10.126;2022-12-13T02:42:05;-3.40;99.90
23748;DHT22;12054;53.662;10.126;2022-12-13T02:44:33;-3.30;99.90
23748;DHT22;12054;53.662;10.126;2022-12-13T02:47:20;-3.30;99.90
23748;DHT22;12054;53.662;10.126;2022-12-13T02:49:49;-3.40;99.90
23748;DHT22;12054;53.662;10.126;2022-12-13T02:52:18;-3.40;99.90
23748;DHT22;12054;53.662;10.126;2022-12-13T02:54:46;-3.40;99.90
23748;DHT22;12054;53.662;10.126;2022-12-13T03:00:08;-3.40;99.90
23748;DHT22;12054;53.662;10.126;2022-12-13T03:11:18;-3.40;99.90
23748;DHT22;12054;53.662;10.126;2022-12-13T03:13:56;-3.30;99.90
23748;DHT22;12054;53.662;10.126;2022-12-13T03:16:41;-3.40;99.90
23748;DHT22;12054;53.662;10.126;2022-12-13T03:19:09;-3.40;99.90
23748;DHT22;12054;53.662;10.126;2022-12-13T03:21:40;-3.30;99.90
23748;DHT22;12054;53.662;10.126;2022-12-13T03:24:07;-3.40;99.90
23748;DHT22;12054;53.662;10.126;2022-12-13T03:26:33;-3.40;99.90
23748;DHT22;12054;53.662;10.126;2022-12-13T03:28:59;-3.40;99.90
23748;DHT22;12054;53.662;10.126;2022-12-13T03:31:24;-3.40;99.90
23748;DHT22;12054;53.662;10.126;2022-12-13T03:33:50;-3.40;99.90
23748;DHT22;12054;53.662;10.126;2022-12-13T03:36:17;-3.40;99.90
23748;DHT22;12054;53.662;10.126;2022-12-13T03:38:44;-3.40;99.90
23748;DHT22;12054;53.662;10.126;2022-12-13T03:41:13;-3.40;99.90
23748;DHT22;12054;53.662;10.126;2022-12-13T03:43:39;-3.40;99.90
23748;DHT22;12054;53.662;10.126;2022-12-13T03:46:06;-3.40;99.90
23748;DHT22;12054;53.662;10.126;2022-12-13T03:48:32;-3.40;99.90
23748;DHT22;12054;53.662;10.126;2022-12-13T03:50:57;-3.40;99.90
23748;DHT22;12054;53.662;10.126;2022-12-13T03:53:23;-3.40;99.90
23748;DHT22;12054;53.662;10.126;2022-12-13T03:55:50;-3.40;99.90
23748;DHT22;12054;53.662;10.126;2022-12-13T03:58:15;-3.40;99.90
23748;DHT22;12054;53.662;10.126;2022-12-13T04:00:40;-3.40;99.90
23748;DHT22;12054;53.662;10.126;2022-12-13T04:03:06;-3.40;99.90
23748;DHT22;12054;53.662;10.126;2022-12-13T04:05:32;-3.40;99.90
23748;DHT22;12054;53.662;10.126;2022-12-13T04:07:57;-3.40;99.90
23748;DHT22;12054;53.662;10.126;2022-12-13T04:10:23;-3.50;99.90
23748;DHT22;12054;53.662;10.126;2022-12-13T04:12:49;-3.50;99.90
23748;DHT22;12054;53.662;10.126;2022-12-13T04:15:34;-3.40;99.90
23748;DHT22;12054;53.662;10.126;2022-12-13T04:17:59;-3.40;99.90
23748;DHT22;12054;53.662;10.126;2022-12-13T04:20:25;-3.50;99.90
23748;DHT22;12054;53.662;10.126;2022-12-13T04:22:50;-3.40;99.90
23748;DHT22;12054;53.662;10.126;2022-12-13T04:25:16;-3.40;99.90
23748;DHT22;12054;53.662;10.126;2022-12-13T04:27:41;-3.40;99.90
23748;DHT22;12054;53.662;10.126;2022-12-13T04:30:07;-3.50;99.90
23748;DHT22;12054;53.662;10.126;2022-12-13T04:32:33;-3.50;99.90
23748;DHT22;12054;53.662;10.126;2022-12-13T04:34:59;-3.50;99.90
23748;DHT22;12054;53.662;10.126;2022-12-13T04:37:24;-3.50;99.90
23748;DHT22;12054;53.662;10.126;2022-12-13T04:39:50;-3.50;99.90
23748;DHT22;12054;53.662;10.126;2022-12-13T04:42:15;-3.50;99.90
23748;DHT22;12054;53.662;10.126;2022-12-13T04:44:41;-3.40;99.90
23748;DHT22;12054;53.662;10.126;2022-12-13T04:47:06;-3.50;99.90
23748;DHT22;12054;53.662;10.126;2022-12-13T04:49:32;-3.50;99.90
23748;DHT22;12054;53.662;10.126;2022-12-13T04:51:58;-3.50;99.90
23748;DHT22;12054;53.662;10.126;2022-12-13T04:54:24;-3.50;99.90
23748;DHT22;12054;53.662;10.126;2022-12-13T04:56:49;-3.50;99.90
23748;DHT22;12054;53.662;10.126;2022-12-13T04:59:15;-3.50;99.90
23748;DHT22;12054;53.662;10.126;2022-12-13T05:01:41;-3.50;99.90
23748;DHT22;12054;53.662;10.126;2022-12-13T05:04:06;-3.50;99.90
23748;DHT22;12054;53.662;10.126;2022-12-13T05:06:32;-3.50;99.90
23748;DHT22;12054;53.662;10.126;2022-12-13T05:08:57;-3.50;99.90
23748;DHT22;12054;53.662;10.126;2022-12-13T05:11:23;-3.40;99.90
23748;DHT22;12054;53.662;10.126;2022-12-13T05:13:48;-3.50;99.90
23748;DHT22;12054;53.662;10.126;2022-12-13T05:16:14;-3.40;99.90
23748;DHT22;12054;53.662;10.126;2022-12-13T05:18:40;-3.40;99.90
23748;DHT22;12054;53.662;10.126;2022-12-13T05:21:08;-3.50;99.90
23748;DHT22;12054;53.662;10.126;2022-12-13T05:23:34;-3.40;99.90
23748;DHT22;12054;53.662;10.126;2022-12-13T05:26:00;-3.40;99.90
23748;DHT22;12054;53.662;10.126;2022-12-13T05:28:26;-3.40;99.90
23748;DHT22;12054;53.662;10.126;2022-12-13T05:30:55;-3.40;99.90
23748;DHT22;12054;53.662;10.126;2022-12-13T05:33:21;-3.40;99.90
23748;DHT22;12054;53.662;10.126;2022-12-13T05:35:47;-3.40;99.90
23748;DHT22;12054;53.662;10.126;2022-12-13T05:38:13;-3.40;99.90
23748;DHT22;12054;53.662;10.126;2022-12-13T05:40:39;-3.40;99.90
23748;DHT22;12054;53.662;10.126;2022-12-13T05:43:04;-3.40;99.90
23748;DHT22;12054;53.662;10.126;2022-12-13T05:45:31;-3.30;99.90
23748;DHT22;12054;53.662;10.126;2022-12-13T05:47:57;-3.40;99.90
23748;DHT22;12054;53.662;10.126;2022-12-13T05:50:23;-3.40;99.90
23748;DHT22;12054;53.662;10.126;2022-12-13T05:52:48;-3.40;99.90
23748;DHT22;12054;53.662;10.126;2022-12-13T05:55:14;-3.40;99.90
23748;DHT22;12054;53.662;10.126;2022-12-13T05:57:39;-3.40;99.90
23748;DHT22;12054;53.662;10.126;2022-12-13T06:00:07;-3.30;99.90
23748;DHT22;12054;53.662;10.126;2022-12-13T06:02:41;-3.30;99.90
23748;DHT22;12054;53.662;10.126;2022-12-13T06:05:08;-3.30;99.90
23748;DHT22;12054;53.662;10.126;2022-12-13T06:07:34;-3.30;99.90
23748;DHT22;12054;53.662;10.126;2022-12-13T06:10:01;-3.30;99.90
23748;DHT22;12054;53.662;10.126;2022-12-13T06:12:26;-3.30;99.90
23748;DHT22;12054;53.662;10.126;2022-12-13T06:14:52;-3.30;99.90
23748;DHT22;12054;53.662;10.126;2022-12-13T06:17:17;-3.20;99.90
23748;DHT22;12054;53.662;10.126;2022-12-13T06:19:44;-3.30;99.90
23748;DHT22;12054;53.662;10.126;2022-12-13T06:22:11;-3.20;99.90
23748;DHT22;12054;53.662;10.126;2022-12-13T06:24:37;-3.20;99.90
23748;DHT22;12054;53.662;10.126;2022-12-13T06:27:02;-3.20;99.90
23748;DHT22;12054;53.662;10.126;2022-12-13T06:29:29;-3.20;99.90
23748;DHT22;12054;53.662;10.126;2022-12-13T06:31:57;-3.20;99.90
23748;DHT22;12054;53.662;10.126;2022-12-13T06:34:23;-3.20;99.90
23748;DHT22;12054;53.662;10.126;2022-12-13T06:36:48;-3.20;99.90
23748;DHT22;12054;53.662;10.126;2022-12-13T06:39:14;-3.10;99.90
23748;DHT22;12054;53.662;10.126;2022-12-13T06:41:40;-3.10;99.90
23748;DHT22;12054;53.662;10.126;2022-12-13T06:44:06;-3.10;99.90
23748;DHT22;12054;53.662;10.126;2022-12-13T06:46:31;-3.10;99.90
23748;DHT22;12054;53.662;10.126;2022-12-13T06:48:57;-3.10;99.90
23748;DHT22;12054;53.662;10.126;2022-12-13T06:51:22;-3.10;99.90
23748;DHT22;12054;53.662;10.126;2022-12-13T06:53:48;-3.10;99.90
23748;DHT22;12054;53.662;10.126;2022-12-13T06:56:14;-3.10;99.90
23748;DHT22;12054;53.662;10.126;2022-12-13T06:58:40;-3.00;99.90
23748;DHT22;12054;53.662;10.126;2022-12-13T07:01:15;-3.00;99.90
23748;DHT22;12054;53.662;10.126;2022-12-13T07:03:40;-3.00;99.90
23748;DHT22;12054;53.662;10.126;2022-12-13T07:06:11;-3.00;99.90
23748;DHT22;12054;53.662;10.126;2022-12-13T07:08:39;-3.00;99.90
23748;DHT22;12054;53.662;10.126;2022-12-13T07:11:04;-3.00;99.90
23748;DHT22;12054;53.662;10.126;2022-12-13T07:13:30;-3.00;99.90
23748;DHT22;12054;53.662;10.126;2022-12-13T07:15:56;-3.00;99.90
23748;DHT22;12054;53.662;10.126;2022-12-13T07:18:22;-3.00;99.90
23748;DHT22;12054;53.662;10.126;2022-12-13T07:20:47;-2.90;99.90
23748;DHT22;12054;53.662;10.126;2022-12-13T07:23:13;-2.90;99.90
23748;DHT22;12054;53.662;10.126;2022-12-13T07:25:39;-2.90;99.90
23748;DHT22;12054;53.662;10.126;2022-12-13T07:28:07;-2.90;99.90
23748;DHT22;12054;53.662;10.126;2022-12-13T07:30:37;-2.90;99.90
23748;DHT22;12054;53.662;10.126;2022-12-13T07:33:04;-2.90;99.90
23748;DHT22;12054;53.662;10.126;2022-12-13T07:35:31;-2.90;99.90
23748;DHT22;12054;53.662;10.126;2022-12-13T07:37:57;-2.90;99.90
23748;DHT22;12054;53.662;10.126;2022-12-13T07:40:23;-2.80;99.90
23748;DHT22;12054;53.662;10.126;2022-12-13T07:42:52;-2.90;99.90
23748;DHT22;12054;53.662;10.126;2022-12-13T07:45:19;-2.80;99.90
23748;DHT22;12054;53.662;10.126;2022-12-13T07:47:44;-2.90;99.90
23748;DHT22;12054;53.662;10.126;2022-12-13T07:50:11;-2.80;99.90
23748;DHT22;12054;53.662;10.126;2022-12-13T07:52:36;-2.80;99.90
23748;DHT22;12054;53.662;10.126;2022-12-13T07:55:02;-2.80;99.90
23748;DHT22;12054;53.662;10.126;2022-12-13T07:57:29;-2.80;99.90
23748;DHT22;12054;53.662;10.126;2022-12-13T07:59:55;-2.80;99.90
23748;DHT22;12054;53.662;10.126;2022-12-13T08:02:22;-2.70;99.90
23748;DHT22;12054;53.662;10.126;2022-12-13T08:04:48;-2.70;99.90
23748;DHT22;12054;53.662;10.126;2022-12-13T08:07:13;-2.70;99.90
23748;DHT22;12054;53.662;10.126;2022-12-13T08:09:39;-2.70;99.90
23748;DHT22;12054;53.662;10.126;2022-12-13T08:12:05;-2.70;99.90
23748;DHT22;12054;53.662;10.126;2022-12-13T08:14:31;-2.70;99.90
23748;DHT22;12054;53.662;10.126;2022-12-13T08:16:56;-2.60;99.90
23748;DHT22;12054;53.662;10.126;2022-12-13T08:19:22;-2.60;99.90
23748;DHT22;12054;53.662;10.126;2022-12-13T08:21:48;-2.60;99.90
23748;DHT22;12054;53.662;10.126;2022-12-13T08:24:17;-2.60;99.90
23748;DHT22;12054;53.662;10.126;2022-12-13T08:26:42;-2.60;99.90
23748;DHT22;12054;53.662;10.126;2022-12-13T08:29:08;-2.60;99.90
23748;DHT22;12054;53.662;10.126;2022-12-13T08:31:34;-2.60;99.90
23748;DHT22;12054;53.662;10.126;2022-12-13T08:33:59;-2.60;99.90
23748;DHT22;12054;53.662;10.126;2022-12-13T08:36:25;-2.50;99.90
23748;DHT22;12054;53.662;10.126;2022-12-13T08:38:54;-2.50;99.90
23748;DHT22;12054;53.662;10.126;2022-12-13T08:41:20;-2.50;99.90
23748;DHT22;12054;53.662;10.126;2022-12-13T08:43:46;-2.50;99.90
23748;DHT22;12054;53.662;10.126;2022-12-13T08:46:11;-2.50;99.90
23748;DHT22;12054;53.662;10.126;2022-12-13T08:48:37;-2.50;99.90
23748;DHT22;12054;53.662;10.126;2022-12-13T08:51:05;-2.40;99.90
23748;DHT22;12054;53.662;10.126;2022-12-13T08:53:32;-2.40;99.90
23748;DHT22;12054;53.662;10.126;2022-12-13T08:56:02;-2.20;99.90
23748;DHT22;12054;53.662;10.126;2022-12-13T08:58:28;-2.40;99.90
23748;DHT22;12054;53.662;10.126;2022-12-13T09:00:54;-2.30;99.90
23748;DHT22;12054;53.662;10.126;2022-12-13T09:03:19;-2.30;99.90
23748;DHT22;12054;53.662;10.126;2022-12-13T09:05:45;-2.30;99.90
23748;DHT22;12054;53.662;10.126;2022-12-13T09:08:10;-2.30;99.90
23748;DHT22;12054;53.662;10.126;2022-12-13T09:10:36;-2.30;99.90
23748;DHT22;12054;53.662;10.126;2022-12-13T09:13:02;-2.30;99.90
23748;DHT22;12054;53.662;10.126;2022-12-13T09:15:28;-2.20;99.90
23748;DHT22;12054;53.662;10.126;2022-12-13T09:17:54;-2.20;99.90
23748;DHT22;12054;53.662;10.126;2022-12-13T09:20:20;-2.20;99.90
23748;DHT22;12054;53.662;10.126;2022-12-13T09:22:46;-2.10;99.90
23748;DHT22;12054;53.662;10.126;2022-12-13T09:25:11;-2.00;99.90
23748;DHT22;12054;53.662;10.126;2022-12-13T09:27:37;-1.90;99.90
23748;DHT22;12054;53.662;10.126;2022-12-13T09:30:03;-1.80;99.90
23748;DHT22;12054;53.662;10.126;2022-12-13T09:32:30;-1.60;99.90
23748;DHT22;12054;53.662;10.126;2022-12-13T09:34:56;-1.40;99.90
23748;DHT22;12054;53.662;10.126;2022-12-13T09:37:21;-1.20;99.90
23748;DHT22;12054;53.662;10.126;2022-12-13T09:39:47;-1.00;99.90
23748;DHT22;12054;53.662;10.126;2022-12-13T09:42:22;-0.80;99.90
23748;DHT22;12054;53.662;10.126;2022-12-13T09:44:54;-0.60;99.90
23748;DHT22;12054;53.662;10.126;2022-12-13T09:47:33;-0.50;99.90
23748;DHT22;12054;53.662;10.126;2022-12-13T09:50:46;-0.30;99.90
23748;DHT22;12054;53.662;10.126;2022-12-13T09:52:53;-0.20;99.90
23748;DHT22;12054;53.662;10.126;2022-12-13T09:55:22;-0.20;99.90
23748;DHT22;12054;53.662;10.126;2022-12-13T09:57:49;-0.20;99.90
23748;DHT22;12054;53.662;10.126;2022-12-13T10:00:21;-0.20;99.90
23748;DHT22;12054;53.662;10.126;2022-12-13T10:02:52;-0.10;99.90
23748;DHT22;12054;53.662;10.126;2022-12-13T10:07:54;0.00;99.90
23748;DHT22;12054;53.662;10.126;2022-12-13T10:10:21;0.00;99.90
23748;DHT22;12054;53.662;10.126;2022-12-13T10:12:53;-0.10;99.90
23748;DHT22;12054;53.662;10.126;2022-12-13T10:15:21;-0.20;99.90
23748;DHT22;12054;53.662;10.126;2022-12-13T10:17:48;-0.20;99.90
23748;DHT22;12054;53.662;10.126;2022-12-13T10:20:19;-0.20;99.90
23748;DHT22;12054;53.662;10.126;2022-12-13T10:22:45;-0.20;99.90
23748;DHT22;12054;53.662;10.126;2022-12-13T10:25:11;-0.20;99.90
23748;DHT22;12054;53.662;10.126;2022-12-13T10:27:39;-0.20;99.90
23748;DHT22;12054;53.662;10.126;2022-12-13T10:30:07;-0.20;99.90
23748;DHT22;12054;53.662;10.126;2022-12-13T10:35:22;-0.30;99.90
23748;DHT22;12054;53.662;10.126;2022-12-13T10:37:48;-0.30;99.90
23748;DHT22;12054;53.662;10.126;2022-12-13T10:40:35;-0.40;99.90
23748;DHT22;12054;53.662;10.126;2022-12-13T10:43:18;-0.40;99.90
23748;DHT22;12054;53.662;10.126;2022-12-13T10:51:02;-0.50;99.90
23748;DHT22;12054;53.662;10.126;2022-12-13T10:53:35;-0.50;99.90
23748;DHT22;12054;53.662;10.126;2022-12-13T10:56:02;-0.50;99.90
23748;DHT22;12054;53.662;10.126;2022-12-13T10:58:38;-0.50;99.90
23748;DHT22;12054;53.662;10.126;2022-12-13T11:03:35;-0.60;99.90
23748;DHT22;12054;53.662;10.126;2022-12-13T11:06:19;-0.60;99.90
23748;DHT22;12054;53.662;10.126;2022-12-13T11:08:45;-0.60;99.90
23748;DHT22;12054;53.662;10.126;2022-12-13T11:11:11;-0.60;99.90
23748;DHT22;12054;53.662;10.126;2022-12-13T11:13:45;-0.60;99.90
23748;DHT22;12054;53.662;10.126;2022-12-13T11:16:21;-0.60;99.90
23748;DHT22;12054;53.662;10.126;2022-12-13T11:18:54;-0.60;99.90
23748;DHT22;12054;53.662;10.126;2022-12-13T11:21:28;-0.60;99.90
23748;DHT22;12054;53.662;10.126;2022-12-13T11:23:57;-0.60;99.90
23748;DHT22;12054;53.662;10.126;2022-12-13T11:26:25;-0.60;99.90
23748;DHT22;12054;53.662;10.126;2022-12-13T11:35:02;-0.60;99.90
23748;DHT22;12054;53.662;10.126;2022-12-13T11:40:25;-0.60;99.90
23748;DHT22;12054;53.662;10.126;2022-12-13T11:43:06;-0.60;99.90
23748;DHT22;12054;53.662;10.126;2022-12-13T11:45:42;-0.60;99.90
23748;DHT22;12054;53.662;10.126;2022-12-13T11:50:59;-0.60;99.90
23748;DHT22;12054;53.662;10.126;2022-12-13T11:56:24;-0.50;99.90
23748;DHT22;12054;53.662;10.126;2022-12-13T11:59:30;-0.50;99.90
23748;DHT22;12054;53.662;10.126;2022-12-13T12:02:19;-0.50;99.90
23748;DHT22;12054;53.662;10.126;2022-12-13T12:04:52;-0.50;99.90
23748;DHT22;12054;53.662;10.126;2022-12-13T12:07:19;-0.50;99.90
23748;DHT22;12054;53.662;10.126;2022-12-13T12:10:03;-0.50;99.90
23748;DHT22;12054;53.662;10.126;2022-12-13T12:12:33;-0.50;99.90
23748;DHT22;12054;53.662;10.126;2022-12-13T12:15:24;-0.50;99.90
23748;DHT22;12054;53.662;10.126;2022-12-13T12:17:50;-0.50;99.90
23748;DHT22;12054;53.662;10.126;2022-12-13T12:20:45;-0.50;99.90
23748;DHT22;12054;53.662;10.126;2022-12-13T12:26:09;-0.40;99.90
23748;DHT22;12054;53.662;10.126;2022-12-13T12:29:02;-0.40;99.90
23748;DHT22;12054;53.662;10.126;2022-12-13T12:38:03;-0.40;99.90
23748;DHT22;12054;53.662;10.126;2022-12-13T12:43:21;-0.40;99.90
23748;DHT22;12054;53.662;10.126;2022-12-13T12:46:11;-0.40;99.90
23748;DHT22;12054;53.662;10.126;2022-12-13T12:51:53;-0.40;99.90
23748;DHT22;12054;53.662;10.126;2022-12-13T12:54:33;-0.40;99.90
23748;DHT22;12054;53.662;10.126;2022-12-13T12:57:26;-0.30;99.90
23748;DHT22;12054;53.662;10.126;2022-12-13T13:00:07;-0.30;99.90
23748;DHT22;12054;53.662;10.126;2022-12-13T13:03:07;-0.30;99.90
23748;DHT22;12054;53.662;10.126;2022-12-13T13:11:08;-0.20;99.90
23748;DHT22;12054;53.662;10.126;2022-12-13T13:13:46;-0.20;99.90
23748;DHT22;12054;53.662;10.126;2022-12-13T13:16:35;-0.20;99.90
23748;DHT22;12054;53.662;10.126;2022-12-13T13:21:57;-0.20;99.90
23748;DHT22;12054;53.662;10.126;2022-12-13T13:24:27;-0.20;99.90
23748;DHT22;12054;53.662;10.126;2022-12-13T13:29:34;-0.20;99.90
23748;DHT22;12054;53.662;10.126;2022-12-13T13:34:41;-0.10;99.90
23748;DHT22;12054;53.662;10.126;2022-12-13T13:37:46;-0.10;99.90
23748;DHT22;12054;53.662;10.126;2022-12-13T13:45:27;-0.10;99.90
23748;DHT22;12054;53.662;10.126;2022-12-13T13:53:39;-0.10;99.90
23748;DHT22;12054;53.662;10.126;2022-12-13T14:05:08;0.00;99.90
23748;DHT22;12054;53.662;10.126;2022-12-13T14:10:36;0.00;99.90
23748;DHT22;12054;53.662;10.126;2022-12-13T14:22:12;-0.10;99.90
23748;DHT22;12054;53.662;10.126;2022-12-13T14:30:43;-0.10;99.90
23748;DHT22;12054;53.662;10.126;2022-12-13T14:33:22;-0.10;99.90
23748;DHT22;12054;53.662;10.126;2022-12-13T14:35:53;-0.10;99.90
23748;DHT22;12054;53.662;10.126;2022-12-13T14:38:23;-0.10;99.90
23748;DHT22;12054;53.662;10.126;2022-12-13T14:40:54;-0.10;99.90
23748;DHT22;12054;53.662;10.126;2022-12-13T14:43:32;-0.10;99.90
23748;DHT22;12054;53.662;10.126;2022-12-13T14:46:03;0.00;99.90
23748;DHT22;12054;53.662;10.126;2022-12-13T14:48:33;-0.10;99.90
23748;DHT22;12054;53.662;10.126;2022-12-13T14:50:59;-0.10;99.90
23748;DHT22;12054;53.662;10.126;2022-12-13T14:53:33;-0.10;99.90
23748;DHT22;12054;53.662;10.126;2022-12-13T14:56:09;-0.10;99.90
23748;DHT22;12054;53.662;10.126;2022-12-13T14:58:36;-0.10;99.90
23748;DHT22;12054;53.662;10.126;2022-12-13T15:01:04;-0.10;99.90
23748;DHT22;12054;53.662;10.126;2022-12-13T15:03:43;0.00;99.90
23748;DHT22;12054;53.662;10.126;2022-12-13T15:06:10;0.00;99.90
23748;DHT22;12054;53.662;10.126;2022-12-13T15:08:36;0.00;99.90
23748;DHT22;12054;53.662;10.126;2022-12-13T15:11:02;-0.10;99.90
23748;DHT22;12054;53.662;10.126;2022-12-13T15:13:38;-0.10;99.90
23748;DHT22;12054;53.662;10.126;2022-12-13T15:16:17;0.00;99.90
23748;DHT22;12054;53.662;10.126;2022-12-13T15:18:45;-0.10;99.90
23748;DHT22;12054;53.662;10.126;2022-12-13T15:21:24;-0.10;99.90
23748;DHT22;12054;53.662;10.126;2022-12-13T15:23:51;-0.10;99.90
23748;DHT22;12054;53.662;10.126;2022-12-13T15:26:21;0.00;99.90
23748;DHT22;12054;53.662;10.126;2022-12-13T15:28:53;-0.10;99.90
23748;DHT22;12054;53.662;10.126;2022-12-13T15:31:20;-0.10;99.90
23748;DHT22;12054;53.662;10.126;2022-12-13T15:33:46;-0.10;99.90
23748;DHT22;12054;53.662;10.126;2022-12-13T15:36:16;-0.10;99.90
23748;DHT22;12054;53.662;10.126;2022-12-13T15:41:20;-0.10;99.90
23748;DHT22;12054;53.662;10.126;2022-12-13T15:43:53;-0.10;99.90
23748;DHT22;12054;53.662;10.126;2022-12-13T15:46:24;-0.10;99.90
23748;DHT22;12054;53.662;10.126;2022-12-13T15:48:50;-0.10;99.90
23748;DHT22;12054;53.662;10.126;2022-12-13T15:51:17;-0.10;99.90
23748;DHT22;12054;53.662;10.126;2022-12-13T15:54:05;-0.10;99.90
23748;DHT22;12054;53.662;10.126;2022-12-13T15:56:40;-0.10;99.90
23748;DHT22;12054;53.662;10.126;2022-12-13T15:59:30;-0.10;99.90
23748;DHT22;12054;53.662;10.126;2022-12-13T16:01:56;-0.10;99.90
23748;DHT22;12054;53.662;10.126;2022-12-13T16:04:24;-0.10;99.90
23748;DHT22;12054;53.662;10.126;2022-12-13T16:06:51;-0.10;99.90
23748;DHT22;12054;53.662;10.126;2022-12-13T16:09:18;-0.20;99.90
23748;DHT22;12054;53.662;10.126;2022-12-13T16:11:53;-0.20;99.90
23748;DHT22;12054;53.662;10.126;2022-12-13T16:17:07;-0.20;99.90
23748;DHT22;12054;53.662;10.126;2022-12-13T16:19:35;-0.20;99.90
23748;DHT22;12054;53.662;10.126;2022-12-13T16:22:00;-0.20;99.90
23748;DHT22;12054;53.662;10.126;2022-12-13T16:24:26;-0.30;99.90
23748;DHT22;12054;53.662;10.126;2022-12-13T16:26:51;-0.30;99.90
23748;DHT22;12054;53.662;10.126;2022-12-13T16:29:17;-0.30;99.90
23748;DHT22;12054;53.662;10.126;2022-12-13T16:31:47;-0.30;99.90
23748;DHT22;12054;53.662;10.126;2022-12-13T16:34:13;-0.30;99.90
23748;DHT22;12054;53.662;10.126;2022-12-13T16:36:42;-0.30;99.90
23748;DHT22;12054;53.662;10.126;2022-12-13T16:39:09;-0.30;99.90
23748;DHT22;12054;53.662;10.126;2022-12-13T16:41:37;-0.30;99.90
23748;DHT22;12054;53.662;10.126;2022-12-13T16:44:05;-0.30;99.90
23748;DHT22;12054;53.662;10.126;2022-12-13T16:46:33;-0.30;99.90
23748;DHT22;12054;53.662;10.126;2022-12-13T16:49:00;-0.30;99.90
23748;DHT22;12054;53.662;10.126;2022-12-13T16:51:29;-0.30;99.90
23748;DHT22;12054;53.662;10.126;2022-12-13T16:53:55;-0.30;99.90
23748;DHT22;12054;53.662;10.126;2022-12-13T16:56:20;-0.40;99.90
23748;DHT22;12054;53.662;10.126;2022-12-13T16:58:47;-0.40;99.90
23748;DHT22;12054;53.662;10.126;2022-12-13T17:01:14;-0.40;99.90
23748;DHT22;12054;53.662;10.126;2022-12-13T17:03:41;-0.40;99.90
23748;DHT22;12054;53.662;10.126;2022-12-13T17:06:08;-0.40;99.90
23748;DHT22;12054;53.662;10.126;2022-12-13T17:08:35;-0.40;99.90
23748;DHT22;12054;53.662;10.126;2022-12-13T17:11:00;-0.40;99.90
23748;DHT22;12054;53.662;10.126;2022-12-13T17:13:27;-0.40;99.90
23748;DHT22;12054;53.662;10.126;2022-12-13T17:15:52;-0.40;99.90
23748;DHT22;12054;53.662;10.126;2022-12-13T17:18:18;-0.40;99.90
23748;DHT22;12054;53.662;10.126;2022-12-13T17:20:45;-0.40;99.90
23748;DHT22;12054;53.662;10.126;2022-12-13T17:23:11;-0.50;99.90
23748;DHT22;12054;53.662;10.126;2022-12-13T17:25:37;-0.50;99.90
23748;DHT22;12054;53.662;10.126;2022-12-13T17:28:04;-0.50;99.90
23748;DHT22;12054;53.662;10.126;2022-12-13T17:30:29;-0.50;99.90